PWSweather.com
Personal Weather Stations
Station Observations
PITCARMI1
La Serra, CarmignanoIT 59015

La SerraCarmignanoIT 59015

Lat: 43.804429, Lon: 11.027222

Elevation: 525

Station Type: Davis Vantage Vue

http://www.meteocarmignano.it

Latest ConditionsUpdated 3:30:02 PM GMT+01:01 Friday, Oct 31, 2014
Currently Today's Max Today's Min Today's Average
Temperature 67.7°F19.8°C 68.7°F20.4°C 44.3°F6.8°C 53.7°F12.1°C
Dew Point 45.0°F7.2°C 46.4°F8.0°C 38.7°F3.7°C 42.0°F5.6°C
Winds 1.2 mph NE1.9 kmh NE 2.3 mph E3.7 kmh E - 0.4 mph 0.6 kmh
Wind Gusts 2.3 mph3.7 kmh 3.5 mph5.6 kmh - -
Humidity 44% 81% 44% 66%
Pressure 30.20 in1022.7 mb 30.28 in1025.4 mb 30.20 in1022.7 mb -
Hour Temp Dew Point Humidity Winds Wind Gusts Pressure Precip Precip Rate Daily Precip Total
03:30 PM 67.7°F19.8°C 45.0°F7.2°C 44% 1.2 mph NE1.9 kmh NE 2.3 mph3.7 kmh 30.20 in1022.7 mb 0.00 in0.0 mm 0.00 in/hr0.0 mm/hr 0.00 in0.0 mm
03:00 PM 68.7°F20.4°C 45.9°F7.7°C 44% 1.2 mph W1.9 kmh W 2.3 mph3.7 kmh 30.20 in1022.7 mb 0.00 in0.0 mm 0.00 in/hr0.0 mm/hr 0.00 in0.0 mm
02:30 PM 68.5°F20.3°C 46.4°F8.0°C 45% 1.2 mph SW1.9 kmh SW 2.3 mph3.7 kmh 30.21 in1023.0 mb 0.00 in0.0 mm 0.00 in/hr0.0 mm/hr 0.00 in0.0 mm
02:00 PM 67.5°F19.7°C 46.0°F7.8°C 46% 1.2 mph WSW1.9 kmh WSW 2.3 mph3.7 kmh 30.21 in1023.0 mb 0.00 in0.0 mm 0.00 in/hr0.0 mm/hr 0.00 in0.0 mm
01:30 PM 66.3°F19.1°C 44.8°F7.1°C 46% 1.2 mph WSW1.9 kmh WSW 1.2 mph1.9 kmh 30.22 in1023.4 mb 0.00 in0.0 mm 0.00 in/hr0.0 mm/hr 0.00 in0.0 mm
01:00 PM 67.0°F19.4°C 45.0°F7.2°C 45% 1.2 mph WSW1.9 kmh WSW 2.3 mph3.7 kmh 30.23 in1023.7 mb 0.00 in0.0 mm 0.00 in/hr0.0 mm/hr 0.00 in0.0 mm
12:30 PM 65.0°F18.3°C 44.3°F6.8°C 47% Calm Calm -- 30.24 in1024.0 mb 0.00 in0.0 mm 0.00 in/hr0.0 mm/hr 0.00 in0.0 mm
12:00 PM 64.2°F17.9°C 44.7°F7.1°C 49% Calm Calm 3.5 mph5.6 kmh 30.25 in1024.4 mb 0.00 in0.0 mm 0.00 in/hr0.0 mm/hr 0.00 in0.0 mm
11:30 AM 61.3°F16.3°C 46.4°F8.0°C 58% Calm Calm 1.2 mph1.9 kmh 30.27 in1025.1 mb 0.00 in0.0 mm 0.00 in/hr0.0 mm/hr 0.00 in0.0 mm
11:00 AM 58.2°F14.6°C 45.7°F7.6°C 63% 1.2 mph E1.9 kmh E 1.2 mph1.9 kmh 30.28 in1025.4 mb 0.00 in0.0 mm 0.00 in/hr0.0 mm/hr 0.00 in0.0 mm
10:30 AM 56.3°F13.5°C 46.3°F7.9°C 69% Calm Calm 1.2 mph1.9 kmh 30.27 in1025.1 mb 0.00 in0.0 mm 0.00 in/hr0.0 mm/hr 0.00 in0.0 mm
10:00 AM 52.0°F11.1°C 43.6°F6.4°C 73% Calm Calm -- 30.27 in1025.1 mb 0.00 in0.0 mm 0.00 in/hr0.0 mm/hr 0.00 in0.0 mm
09:30 AM 50.0°F10.0°C 43.7°F6.5°C 79% Calm Calm -- 30.27 in1025.1 mb 0.00 in0.0 mm 0.00 in/hr0.0 mm/hr 0.00 in0.0 mm
09:00 AM 52.0°F11.1°C 43.3°F6.3°C 72% 2.3 mph E3.7 kmh E 2.3 mph3.7 kmh 30.27 in1025.1 mb 0.00 in0.0 mm 0.00 in/hr0.0 mm/hr 0.00 in0.0 mm
08:30 AM 49.2°F9.6°C 42.0°F5.6°C 76% Calm Calm -- 30.27 in1025.1 mb 0.00 in0.0 mm 0.00 in/hr0.0 mm/hr 0.00 in0.0 mm
08:00 AM 47.9°F8.8°C 41.0°F5.0°C 77% Calm Calm -- 30.26 in1024.7 mb 0.00 in0.0 mm 0.00 in/hr0.0 mm/hr 0.00 in0.0 mm
07:30 AM 45.6°F7.6°C 39.1°F3.9°C 78% Calm Calm -- 30.26 in1024.7 mb 0.00 in0.0 mm 0.00 in/hr0.0 mm/hr 0.00 in0.0 mm
07:00 AM 44.8°F7.1°C 38.7°F3.7°C 79% Calm Calm -- 30.25 in1024.4 mb 0.00 in0.0 mm 0.00 in/hr0.0 mm/hr 0.00 in0.0 mm
06:30 AM 44.3°F6.8°C 38.8°F3.8°C 81% Calm Calm -- 30.25 in1024.4 mb 0.00 in0.0 mm 0.00 in/hr0.0 mm/hr 0.00 in0.0 mm
06:00 AM 44.5°F6.9°C 38.7°F3.7°C 80% Calm Calm -- 30.24 in1024.0 mb 0.00 in0.0 mm 0.00 in/hr0.0 mm/hr 0.00 in0.0 mm
05:30 AM 47.0°F8.3°C 39.2°F4.0°C 74% Calm Calm -- 30.24 in1024.0 mb 0.00 in0.0 mm 0.00 in/hr0.0 mm/hr 0.00 in0.0 mm
05:00 AM 45.9°F7.7°C 38.8°F3.8°C 76% Calm Calm -- 30.25 in1024.4 mb 0.00 in0.0 mm 0.00 in/hr0.0 mm/hr 0.00 in0.0 mm
04:30 AM 46.2°F7.9°C 39.0°F3.9°C 76% Calm Calm 1.2 mph1.9 kmh 30.25 in1024.4 mb 0.00 in0.0 mm 0.00 in/hr0.0 mm/hr 0.00 in0.0 mm
04:00 AM 46.1°F7.8°C 39.3°F4.1°C 77% Calm Calm -- 30.24 in1024.0 mb 0.00 in0.0 mm 0.00 in/hr0.0 mm/hr 0.00 in0.0 mm
03:30 AM 46.9°F8.3°C 39.7°F4.3°C 76% Calm Calm -- 30.24 in1024.0 mb 0.00 in0.0 mm 0.00 in/hr0.0 mm/hr 0.00 in0.0 mm
03:00 AM 49.3°F9.6°C 39.5°F4.2°C 69% Calm Calm -- 30.24 in1024.0 mb 0.00 in0.0 mm 0.00 in/hr0.0 mm/hr 0.00 in0.0 mm
02:30 AM 48.9°F9.4°C 39.5°F4.2°C 70% Calm Calm -- 30.24 in1024.0 mb 0.00 in0.0 mm 0.00 in/hr0.0 mm/hr 0.00 in0.0 mm
02:00 AM 49.5°F9.7°C 40.1°F4.5°C 70% Calm Calm -- 30.25 in1024.4 mb 0.00 in0.0 mm 0.00 in/hr0.0 mm/hr 0.00 in0.0 mm
01:30 AM 47.2°F8.4°C 39.7°F4.3°C 75% Calm Calm -- 30.24 in1024.0 mb 0.00 in0.0 mm 0.00 in/hr0.0 mm/hr 0.00 in0.0 mm
01:00 AM 48.9°F9.4°C 39.5°F4.2°C 70% Calm Calm -- 30.24 in1024.0 mb 0.00 in0.0 mm 0.00 in/hr0.0 mm/hr 0.00 in0.0 mm
12:30 AM 51.0°F10.6°C 40.1°F4.5°C 66% Calm Calm 2.3 mph3.7 kmh 30.25 in1024.4 mb 0.00 in0.0 mm 0.00 in/hr0.0 mm/hr 0.00 in0.0 mm
12:00 AM 49.7°F9.8°C 41.0°F5.0°C 72% 1.2 mph NNW1.9 kmh NNW 2.3 mph3.7 kmh 30.24 in1024.0 mb 0.00 in0.0 mm 0.00 in/hr0.0 mm/hr 0.00 in0.0 mm